Time;durP1;ratioP1;P1;durP2;ratioP2;P2;SDS_P1;SDS_P2;PMS_P1;PMS_P2;Temp;Humidity;BMP_temperature;BMP_pressure;BME280_temperature;BME280_humidity;BME280_pressure;Samples;Min_cycle;Max_cycle;Signal;HPM_P1;HPM_P2
2022/06/03 00:00:19;;;;;;;0.50;0.50;;;22.00;42.20;;;25.80;27.67;101950.72;5123758;27;20049;-20
2022/06/03 00:03:20;;;;;;;0.50;0.50;;;22.00;42.20;;;25.83;27.74;101950.53;5136216;27;20050;-20
2022/06/03 00:06:03;;;;;;;0.75;0.75;;;22.00;42.20;;;25.78;27.72;101939.25;5135549;27;20103;-20
2022/06/03 00:09:03;;;;;;;1.10;0.90;;;22.00;42.20;;;25.81;27.85;101952.44;5154048;27;20127;-21
2022/06/03 00:12:02;;;;;;;1.95;0.80;;;22.00;42.20;;;25.81;27.76;101947.09;5153851;27;20102;-20
2022/06/03 00:15:12;;;;;;;0.90;0.90;;;22.00;42.20;;;25.81;27.74;101951.56;5153651;27;20390;-20
2022/06/03 00:18:14;;;;;;;0.80;0.80;;;22.00;42.20;;;25.77;27.83;101950.91;5153700;27;20074;-20
2022/06/03 00:21:03;;;;;;;0.60;0.60;;;22.00;42.20;;;25.81;27.68;101954.25;5153843;27;20375;-20
2022/06/03 00:23:51;;;;;;;0.60;0.60;;;21.90;42.10;;;25.77;27.76;101942.88;5135361;27;20382;-20
2022/06/03 00:26:45;;;;;;;0.65;0.65;;;21.90;42.20;;;25.78;27.79;101949.97;5153850;27;20043;-20
2022/06/03 00:29:32;;;;;;;0.85;0.70;;;21.90;42.20;;;25.77;27.66;101950.06;5134836;27;20061;-21
2022/06/03 00:32:32;;;;;;;1.00;0.88;;;21.90;42.20;;;25.77;27.81;101950.06;5135482;27;20043;-20
2022/06/03 00:35:20;;;;;;;0.80;0.80;;;21.90;42.20;;;25.79;27.67;101953.50;5135213;27;20457;-20
2022/06/03 00:37:57;;;;;;;0.70;0.70;;;21.90;42.20;;;25.79;27.72;101946.31;5153503;27;20133;-20
2022/06/03 00:40:32;;;;;;;0.73;0.73;;;21.90;42.20;;;25.79;27.81;101949.00;5135373;27;20045;-21
2022/06/03 00:43:28;;;;;;;0.93;0.80;;;21.90;42.70;;;25.78;27.85;101951.81;5153694;27;20035;-20
2022/06/03 00:46:43;;;;;;;0.60;0.60;;;21.90;42.20;;;25.79;27.56;101957.03;5157113;27;20070;-19
2022/06/03 00:49:36;;;;;;;0.82;0.60;;;21.90;42.20;;;25.77;27.83;101940.19;5157033;27;20133;-20
2022/06/03 00:52:45;;;;;;;1.10;0.80;;;21.90;42.20;;;25.80;27.85;101947.19;5157231;27;20054;-20
2022/06/03 00:55:40;;;;;;;0.82;0.82;;;21.90;42.20;;;25.71;27.73;101932.59;5157574;27;20133;-20
2022/06/03 00:58:19;;;;;;;0.90;0.90;;;21.90;42.20;;;25.74;27.83;101937.72;5136587;27;20134;-20
2022/06/03 01:01:03;;;;;;;0.93;0.85;;;21.90;42.20;;;25.73;27.72;101938.69;5157226;27;20133;-20
2022/06/03 01:04:14;;;;;;;0.80;0.70;;;21.90;42.20;;;25.75;27.76;101942.13;5156879;27;20082;-20
2022/06/03 01:07:11;;;;;;;1.13;0.80;;;21.90;42.20;;;25.75;27.78;101944.81;5156509;27;20051;-20
2022/06/03 01:09:55;;;;;;;1.25;0.77;;;21.90;42.20;;;25.74;27.75;101937.72;5136263;27;20043;-20
2022/06/03 01:13:06;;;;;;;0.85;0.80;;;21.90;42.20;;;25.74;27.81;101936.88;5156699;27;20038;-20
2022/06/03 01:15:41;;;;;;;0.70;0.70;;;21.90;42.20;;;25.70;27.78;101930.84;5156834;27;20050;-20
2022/06/03 01:18:32;;;;;;;0.93;0.63;;;21.90;42.20;;;25.74;27.77;101950.25;5138069;27;20446;-21
2022/06/03 01:21:45;;;;;;;1.10;0.80;;;21.90;42.20;;;25.76;27.74;101949.22;5157028;27;20088;-21
2022/06/03 01:24:38;;;;;;;1.30;0.70;;;21.90;42.20;;;25.74;27.72;101948.44;5138528;27;20047;-20
2022/06/03 01:27:56;;;;;;;0.80;0.80;;;21.90;42.20;;;25.75;27.85;101949.31;5156808;27;20482;-20
2022/06/03 01:30:42;;;;;;;0.98;0.85;;;21.90;42.20;;;25.72;27.82;101950.34;5156398;27;20046;-20
2022/06/03 01:33:07;;;;;;;0.82;0.82;;;21.90;42.20;;;25.74;27.74;101955.63;5137799;27;20035;-21
2022/06/03 01:35:52;;;;;;;0.60;0.60;;;21.90;42.30;;;25.64;27.82;101942.84;5156265;27;20129;-21
2022/06/03 01:38:59;;;;;;;1.80;0.80;;;21.90;42.30;;;25.72;27.80;101953.03;5156131;27;20045;-20
2022/06/03 01:41:51;;;;;;;1.35;0.77;;;21.90;42.30;;;25.72;27.87;101954.88;5135533;27;20039;-20
2022/06/03 01:45:17;;;;;;;0.70;0.70;;;21.90;42.30;;;25.73;27.84;101956.56;5136296;27;20050;-20
2022/06/03 01:48:01;;;;;;;0.88;0.80;;;21.90;42.30;;;25.71;27.78;101948.66;5156185;27;20042;-20
2022/06/03 01:50:47;;;;;;;0.63;0.63;;;21.80;42.20;;;25.72;27.80;101949.50;5156092;27;20050;-20
2022/06/03 01:53:51;;;;;;;0.75;0.70;;;21.80;42.20;;;25.69;27.80;101945.19;5137205;27;20070;-20
2022/06/03 01:56:41;;;;;;;0.60;0.60;;;21.90;42.30;;;25.69;27.76;101945.19;5137326;27;20046;-20
2022/06/03 01:59:47;;;;;;;0.73;0.68;;;21.80;42.20;;;25.67;27.86;101933.72;5156218;27;20115;-21
2022/06/03 02:02:43;;;;;;;0.88;0.60;;;21.80;42.30;;;25.69;27.94;101948.75;5155554;27;20091;-20
2022/06/03 02:05:30;;;;;;;1.10;1.00;;;21.90;42.30;;;25.67;27.71;101950.66;5155847;27;20049;-20
2022/06/03 02:08:15;;;;;;;0.70;0.70;;;21.90;42.30;;;25.63;27.75;101935.75;5155791;27;20135;-20
2022/06/03 02:11:25;;;;;;;0.80;0.70;;;21.80;42.20;;;25.69;27.86;101942.53;5155626;27;20061;-20
2022/06/03 02:14:31;;;;;;;0.88;0.80;;;21.80;42.20;;;25.70;27.86;101941.56;5111547;27;20072;-20
2022/06/03 02:17:12;;;;;;;0.75;0.75;;;21.80;42.30;;;25.68;27.96;101941.66;5136817;27;20054;-20
2022/06/03 02:19:57;;;;;;;0.85;0.77;;;21.80;42.30;;;25.69;27.82;101942.53;5155062;27;20108;-20
2022/06/03 02:23:03;;;;;;;1.13;0.90;;;21.80;42.20;;;25.68;27.90;101941.66;5156178;27;20039;-21
2022/06/03 02:26:00;;;;;;;1.25;0.90;;;21.80;42.30;;;25.65;27.81;101939.19;5136981;27;20042;-20
2022/06/03 02:32:07;;;;;;;1.00;0.80;;;21.80;42.30;;;25.65;28.03;101943.69;5155572;27;20142;-20
2022/06/03 02:35:18;;;;;;;0.77;0.75;;;21.80;42.30;;;25.63;27.75;101938.44;5155194;27;20102;-21
2022/06/03 02:38:21;;;;;;;0.82;0.82;;;21.80;42.30;;;25.66;27.81;101946.28;5155195;27;20465;-20
2022/06/03 02:41:48;;;;;;;0.73;0.70;;;21.80;42.30;;;25.64;27.83;101937.50;5155174;27;20039;-20
2022/06/03 02:44:41;;;;;;;0.88;0.85;;;21.80;42.30;;;25.65;27.73;101935.66;5155408;27;20049;-20
2022/06/03 02:47:57;;;;;;;1.00;0.90;;;21.80;42.30;;;25.65;27.83;101935.66;5154918;27;20043;-20
2022/06/03 02:50:49;;;;;;;0.70;0.70;;;21.80;42.30;;;25.63;27.78;101938.44;5155730;27;20087;-20
2022/06/03 02:53:48;;;;;;;1.00;0.90;;;21.80;42.30;;;25.64;27.91;101937.50;5136647;27;20125;-20
2022/06/03 02:56:39;;;;;;;1.08;0.80;;;21.80;42.30;;;25.62;27.86;101935.84;5154818;27;20046;-20
2022/06/03 02:59:41;;;;;;;0.70;0.70;;;21.80;42.30;;;25.66;27.83;101940.91;5154955;27;20045;-20
2022/06/03 03:02:51;;;;;;;1.55;1.00;;;21.80;42.30;;;25.57;27.94;101921.91;5154814;27;20094;-20
2022/06/03 03:05:44;;;;;;;0.90;0.80;;;21.80;42.30;;;25.63;27.90;101934.91;5155158;27;20038;-20
2022/06/03 03:08:49;;;;;;;1.08;0.98;;;21.80;42.30;;;25.65;27.80;101943.69;5154322;27;20077;-20
2022/06/03 03:11:54;;;;;;;0.70;0.70;;;21.80;42.20;;;25.64;27.92;101944.63;5136453;27;20047;-20
2022/06/03 03:15:16;;;;;;;1.23;0.65;;;21.80;42.20;;;25.69;27.86;101947.88;5134639;27;20471;-20
2022/06/03 03:18:33;;;;;;;1.23;1.00;;;21.80;42.20;;;25.64;27.80;101939.28;5154549;27;20057;-20
2022/06/03 03:21:28;;;;;;;0.70;0.70;;;21.90;42.10;;;25.67;27.60;101937.25;5070571;28;20044;-20
2022/06/03 03:24:26;;;;;;;1.17;0.95;;;21.90;42.10;;;25.72;27.78;101947.69;5153541;27;20039;-20
2022/06/03 03:27:08;;;;;;;1.00;0.80;;;21.90;42.00;;;25.76;27.86;101945.66;5134364;27;20043;-20
2022/06/03 03:30:24;;;;;;;0.90;0.82;;;22.00;42.00;;;25.79;27.56;101940.94;5154369;27;20049;-20
2022/06/03 03:33:46;;;;;;;1.02;0.90;;;22.00;42.00;;;25.80;27.62;101937.31;5076727;27;20039;-21
2022/06/03 03:37:10;;;;;;;0.75;0.75;;;22.10;41.90;;;25.87;27.70;101944.00;5154657;27;20034;-20
2022/06/03 03:40:23;;;;;;;0.98;0.80;;;22.10;41.90;;;25.93;27.59;101942.75;5122039;27;20039;-20
2022/06/03 03:43:33;;;;;;;1.85;0.93;;;22.10;41.80;;;25.94;27.57;101936.41;5154309;27;20054;-20
2022/06/03 03:46:44;;;;;;;1.20;0.90;;;22.20;41.80;;;26.01;27.55;101944.94;5135740;27;20039;-20
2022/06/03 03:49:58;;;;;;;0.50;0.50;;;22.20;41.60;;;26.09;27.52;101945.28;5136150;27;20166;-20
2022/06/03 03:53:18;;;;;;;0.80;0.80;;;22.40;41.50;;;26.11;27.46;101951.41;5154264;27;20087;-20
2022/06/03 03:56:29;;;;;;;0.95;0.82;;;22.40;41.40;;;26.14;27.54;101953.03;5135909;27;20047;-20
2022/06/03 03:59:13;;;;;;;1.15;0.70;;;22.50;41.40;;;26.15;27.34;101947.56;5154175;27;20418;-20
2022/06/03 04:02:14;;;;;;;1.08;0.98;;;22.50;41.30;;;26.22;27.49;101951.53;5154154;27;20066;-20
2022/06/03 04:05:01;;;;;;;;;;;22.60;41.30;;;26.38;27.16;101951.38;5154365;27;20098;-21
2022/06/03 04:07:56;;;;;;;0.90;0.90;;;22.60;41.30;;;26.33;27.46;101953.50;5153863;27;19982;-21
2022/06/03 04:11:17;;;;;;;1.20;0.90;;;22.60;41.20;;;26.32;27.23;101951.78;5142180;27;20054;-20
2022/06/03 04:14:28;;;;;;;1.17;1.00;;;22.70;41.20;;;26.38;27.31;101969.25;5154056;27;20041;-20
2022/06/03 04:17:32;;;;;;;0.88;0.88;;;22.70;41.10;;;26.43;27.25;101965.31;5121164;27;20466;-21
2022/06/03 04:20:21;;;;;;;1.38;0.73;;;22.70;41.00;;;26.45;27.22;101967.91;5137807;27;20389;-20
2022/06/03 04:23:28;;;;;;;1.10;1.00;;;22.80;41.00;;;26.47;27.48;101970.47;5157514;27;20090;-20
2022/06/03 04:26:20;;;;;;;0.75;0.70;;;22.80;41.00;;;26.50;27.33;101972.97;5138669;27;20125;-20
2022/06/03 04:29:48;;;;;;;0.80;0.80;;;22.90;41.00;;;26.58;27.26;101974.16;5157220;27;20137;-20
2022/06/03 04:33:01;;;;;;;0.70;0.70;;;22.90;40.90;;;26.60;27.14;101974.91;5157585;27;20098;-20
2022/06/03 04:35:48;;;;;;;1.20;1.10;;;23.00;40.90;;;26.62;27.08;101986.38;5157175;27;20046;-20
2022/06/03 04:38:32;;;;;;;1.02;0.93;;;23.00;40.80;;;26.67;27.16;101980.72;5157055;27;20439;-20
2022/06/03 04:41:24;;;;;;;0.77;0.77;;;23.10;40.80;;;26.71;27.14;101976.84;5157034;27;20042;-20
2022/06/03 04:44:19;;;;;;;0.77;0.77;;;23.10;40.80;;;26.76;27.18;101974.75;5138607;27;20051;-20
2022/06/03 04:47:28;;;;;;;0.85;0.80;;;23.10;40.70;;;26.80;27.15;101964.66;5156908;27;20106;-20
2022/06/03 04:50:27;;;;;;;0.98;0.93;;;23.20;40.70;;;26.82;26.90;101969.91;5138405;27;20482;-20
2022/06/03 04:53:38;;;;;;;0.82;0.77;;;23.20;40.70;;;26.85;27.12;101975.03;5157192;27;20046;-20
2022/06/03 04:56:37;;;;;;;0.82;0.68;;;23.20;40.60;;;26.88;26.92;101969.47;5136720;27;20054;-20
2022/06/03 04:59:40;;;;;;;0.77;0.77;;;23.30;40.50;;;26.90;26.91;101962.19;5156922;27;20047;-21
2022/06/03 05:03:03;;;;;;;1.33;0.73;;;23.30;40.40;;;26.94;26.89;101958.31;5156609;27;20043;-20
2022/06/03 05:06:30;;;;;;;1.00;0.90;;;23.40;40.40;;;27.01;26.98;101958.72;5138344;27;20043;-21
2022/06/03 05:09:27;;;;;;;1.13;0.85;;;23.40;40.30;;;27.04;27.00;101959.38;5052745;28;20048;-21
2022/06/03 05:12:24;;;;;;;1.65;1.00;;;23.50;40.20;;;27.07;26.58;101956.47;5153157;27;20124;-20
2022/06/03 05:15:14;;;;;;;0.80;0.80;;;23.50;40.20;;;27.08;26.80;101950.16;5157165;27;20121;-20
2022/06/03 05:18:24;;;;;;;0.80;0.80;;;23.50;40.10;;;27.16;26.49;101950.47;5136967;27;20047;-20
2022/06/03 05:21:48;;;;;;;1.15;0.80;;;23.60;40.10;;;27.22;26.53;101954.53;5156393;27;20390;-20
2022/06/03 05:24:53;;;;;;;0.70;0.60;;;23.60;40.00;;;27.25;26.67;101951.63;5156704;27;20054;-20
2022/06/03 05:27:54;;;;;;;0.93;0.70;;;23.70;40.00;;;27.27;26.49;101954.19;5137513;27;20091;-20
2022/06/03 05:31:10;;;;;;;0.97;0.80;;;23.70;39.90;;;27.32;26.50;101960.97;5156284;27;20107;-21
2022/06/03 05:34:16;;;;;;;0.70;0.70;;;23.70;40.00;;;27.37;26.46;101963.34;5072229;28;20052;-20
2022/06/03 05:37:47;;;;;;;1.13;0.85;;;23.70;39.90;;;27.38;26.44;101954.28;5136540;27;20039;-20
2022/06/03 05:40:32;;;;;;;0.73;0.60;;;23.80;39.90;;;27.44;26.36;101961.06;5156128;27;20047;-20
2022/06/03 05:43:20;;;;;;;0.80;0.80;;;23.80;39.70;;;27.47;26.40;101956.31;5120767;27;20039;-20
2022/06/03 05:46:08;;;;;;;0.70;0.70;;;23.90;39.70;;;27.49;26.20;101962.44;5156385;27;20038;-20
2022/06/03 05:48:46;;;;;;;1.00;0.90;;;23.90;39.60;;;27.52;26.19;101958.69;5155845;27;20069;-20
2022/06/03 05:51:38;;;;;;;1.25;0.80;;;23.90;39.60;;;27.58;26.29;101960.03;5135644;27;20047;-20
2022/06/03 05:54:38;;;;;;;0.75;0.75;;;24.00;39.60;;;27.63;26.10;101961.44;5156105;27;20041;-20
2022/06/03 05:57:34;;;;;;;0.60;0.60;;;24.00;39.50;;;27.64;26.13;101948.88;5135994;27;20099;-21
2022/06/03 06:00:51;;;;;;;1.10;0.70;;;24.10;39.50;;;27.72;26.38;101957.22;5137230;27;20035;-20
2022/06/03 06:03:31;;;;;;;1.60;0.90;;;24.10;39.40;;;27.72;25.97;101949.16;5155470;27;20072;-20
2022/06/03 06:06:27;;;;;;;1.20;1.10;;;24.10;39.30;;;27.74;25.88;101944.53;5155667;27;20039;-21
2022/06/03 06:09:40;;;;;;;0.70;0.70;;;24.20;39.40;;;27.82;26.01;101947.50;5155560;27;20509;-20
2022/06/03 06:12:28;;;;;;;0.82;0.82;;;24.20;39.30;;;27.79;25.88;101945.03;5136009;27;20053;-20
2022/06/03 06:15:37;;;;;;;0.70;0.70;;;24.20;39.30;;;27.88;26.02;101949.72;5155415;27;20095;-20
2022/06/03 06:18:14;;;;;;;0.75;0.70;;;24.20;39.20;;;27.88;25.97;101946.16;5136904;27;20050;-21
2022/06/03 06:21:08;;;;;;;0.95;0.90;;;24.20;39.70;;;27.91;25.85;101945.94;5155625;27;20091;-21
2022/06/03 06:24:01;;;;;;;0.80;0.80;;;24.30;39.20;;;27.94;25.83;101940.38;5135797;27;20058;-20
2022/06/03 06:27:07;;;;;;;0.90;0.70;;;24.30;39.10;;;28.03;25.65;101942.38;5155312;27;20119;-21
2022/06/03 06:30:00;;;;;;;1.67;0.98;;;24.30;39.10;;;28.04;25.78;101938.72;5155066;27;20133;-21
2022/06/03 06:32:45;;;;;;;0.80;0.77;;;24.40;39.10;;;28.06;25.64;101947.50;5136728;27;20111;-20
2022/06/03 06:36:06;;;;;;;0.80;0.80;;;24.40;39.10;;;28.09;25.56;101938.38;5136021;27;20096;-21
2022/06/03 06:38:58;;;;;;;0.70;0.70;;;24.40;39.00;;;28.15;25.45;101945.97;5154803;27;20133;-21
2022/06/03 06:41:56;;;;;;;1.55;0.80;;;24.40;39.00;;;28.18;25.62;101948.41;5154228;27;20538;-20
2022/06/03 06:44:49;;;;;;;0.70;0.70;;;24.50;38.90;;;28.22;25.55;101944.53;5117046;27;20126;-20
2022/06/03 06:47:37;;;;;;;0.77;0.77;;;24.50;38.90;;;28.21;25.38;101941.94;5155191;27;20039;-21
2022/06/03 06:50:25;;;;;;;1.00;0.90;;;24.50;38.80;;;28.24;25.63;101944.41;5154762;27;20482;-20
2022/06/03 06:53:23;;;;;;;0.80;0.80;;;24.50;38.80;;;28.21;25.37;101940.09;5136435;27;20134;-21
2022/06/03 06:55:54;;;;;;;1.08;0.98;;;24.50;38.80;;;28.23;25.67;101940.88;5155452;27;20050;-20
2022/06/03 06:58:58;;;;;;;0.95;0.80;;;24.50;38.80;;;28.33;25.41;101948.22;5154474;27;20077;-20
2022/06/03 07:01:48;;;;;;;0.70;0.70;;;24.50;38.80;;;28.30;25.38;101935.88;5136127;27;20047;-21
2022/06/03 07:04:27;;;;;;;0.90;0.80;;;24.50;38.80;;;28.28;25.59;101927.94;5155204;27;20442;-20
2022/06/03 07:07:29;;;;;;;0.85;0.82;;;24.50;38.80;;;28.33;25.62;101942.84;5136490;27;20328;-21
2022/06/03 07:10:15;;;;;;;0.77;0.77;;;24.50;38.80;;;28.33;25.20;101943.69;5134022;27;20391;-21
2022/06/03 07:13:24;;;;;;;0.70;0.70;;;24.50;38.80;;;28.38;25.19;101948.72;5136306;27;20035;-20
2022/06/03 07:19:54;;;;;;;0.85;0.85;;;24.60;38.80;;;28.34;25.27;101950.78;5154540;27;20043;-19
2022/06/03 07:23:06;;;;;;;0.80;0.80;;;24.60;38.80;;;28.42;25.41;101952.91;5135378;27;20035;-20
2022/06/03 07:26:02;;;;;;;0.80;0.73;;;24.60;38.70;;;28.35;25.09;101940.88;5033795;28;20063;-21
2022/06/03 07:28:53;;;;;;;0.77;0.77;;;24.60;38.70;;;28.40;25.41;101944.06;5131861;27;20047;-20
2022/06/03 07:31:36;;;;;;;1.20;0.65;;;24.60;38.70;;;28.42;25.32;101944.84;5154938;27;20057;-21
2022/06/03 07:34:29;;;;;;;0.90;0.80;;;24.60;38.70;;;28.42;25.31;101940.31;5136074;27;20050;-22
2022/06/03 07:37:05;;;;;;;0.85;0.70;;;24.60;38.70;;;28.42;25.40;101931.38;5134980;27;20534;-19
2022/06/03 07:39:54;;;;;;;0.73;0.73;;;24.60;38.60;;;28.41;25.31;101922.44;5133591;27;20092;-20
2022/06/03 07:42:47;;;;;;;0.80;0.77;;;24.60;38.60;;;28.42;24.93;101917.94;5135777;27;20087;-21
2022/06/03 07:45:37;;;;;;;0.80;0.80;;;24.60;38.60;;;28.39;25.27;101919.03;5135786;27;20423;-22
2022/06/03 07:48:14;;;;;;;0.90;0.70;;;24.70;38.70;;;28.43;24.97;101916.94;5153958;27;20130;-22
2022/06/03 07:50:52;;;;;;;0.88;0.88;;;24.60;38.60;;;28.40;25.47;101912.69;5136130;27;20039;-20
2022/06/03 07:53:43;;;;;;;0.90;0.90;;;24.60;38.60;;;28.45;25.27;101923.94;5135410;27;20087;-20
2022/06/03 07:56:10;;;;;;;0.98;0.70;;;24.70;38.60;;;28.47;25.08;101913.06;5139096;27;20099;-20
2022/06/03 07:58:39;;;;;;;0.63;0.63;;;24.60;38.50;;;28.46;24.98;101914.88;5157588;27;20505;-20
2022/06/03 08:01:27;;;;;;;0.90;0.90;;;24.70;38.60;;;28.47;25.16;101921.13;5157913;27;20126;-20
2022/06/03 08:03:54;;;;;;;0.70;0.70;;;24.70;38.60;;;28.49;25.18;101911.09;5157604;27;20366;-20
2022/06/03 08:12:31;;;;;;;1.08;0.80;;;24.60;38.60;;;28.41;25.14;101898.22;5157955;27;20393;-20
2022/06/03 08:14:57;;;;;;;0.63;0.63;;;24.60;38.60;;;28.44;25.18;101902.53;5157682;27;20422;-22
2022/06/03 08:17:25;;;;;;;0.77;0.77;;;24.70;38.70;;;28.45;24.89;101907.78;5157396;27;20130;-20
2022/06/03 08:19:54;;;;;;;0.60;0.60;;;24.60;38.60;;;28.46;24.89;101905.94;5157226;27;20035;-21
2022/06/03 08:22:24;;;;;;;0.68;0.68;;;24.60;38.60;;;28.42;25.11;101905.34;5138829;27;20038;-21
2022/06/03 08:24:59;;;;;;;0.70;0.70;;;24.60;38.60;;;28.40;24.95;101915.38;5157494;27;20042;-21
2022/06/03 08:27:31;;;;;;;0.77;0.77;;;24.60;38.70;;;28.42;25.24;101917.94;5157855;27;20099;-22
2022/06/03 08:30:04;;;;;;;1.05;0.95;;;24.50;38.70;;;28.37;25.28;101912.91;5157912;27;20043;-21
2022/06/03 08:32:40;;;;;;;1.17;0.70;;;24.50;38.80;;;28.38;25.04;101911.91;5157163;27;20051;-20
2022/06/03 08:35:31;;;;;;;0.70;0.70;;;24.50;38.80;;;28.37;25.11;101918.28;5138838;27;20038;-21
2022/06/03 08:38:06;;;;;;;0.77;0.77;;;24.40;38.90;;;28.32;25.35;101914.22;5156893;27;20470;-21
2022/06/03 08:41:07;;;;;;;0.57;0.57;;;24.40;39.00;;;28.33;25.43;101921.31;5138456;27;20063;-21
2022/06/03 08:43:57;;;;;;;0.80;0.63;;;24.40;39.00;;;28.27;25.15;101915.44;5138346;27;20088;-21
2022/06/03 08:46:51;;;;;;;0.70;0.70;;;24.30;39.10;;;28.24;25.50;101906.75;5138427;27;20430;-21
2022/06/03 08:49:26;;;;;;;1.67;0.80;;;24.30;39.20;;;28.19;25.39;101907.09;5156900;27;20061;-21
2022/06/03 08:52:06;;;;;;;2.05;0.80;;;24.20;39.20;;;28.17;25.25;101906.38;5138548;27;20507;-20
2022/06/03 08:54:40;;;;;;;1.15;0.90;;;24.20;39.20;;;28.13;25.31;101902.19;5156986;27;20129;-20
2022/06/03 08:57:16;;;;;;;0.80;0.80;;;24.20;39.20;;;28.14;25.43;101914.66;5137796;27;20047;-21
2022/06/03 09:00:13;;;;;;;0.82;0.60;;;24.20;39.40;;;28.12;25.35;101916.63;5118118;28;20518;-21
2022/06/03 09:02:49;;;;;;;0.77;0.77;;;24.10;39.40;;;28.05;25.61;101907.28;5135918;28;20386;-21
2022/06/03 09:05:24;;;;;;;0.85;0.82;;;24.10;40.00;;;28.06;25.27;101920.63;5116889;28;20035;-22
2022/06/03 09:08:16;;;;;;;1.33;0.90;;;24.10;39.50;;;28.01;25.48;101912.06;5116502;28;20486;-20
2022/06/03 09:10:58;;;;;;;1.13;1.02;;;24.00;39.50;;;27.97;25.70;101905.19;5136145;28;20039;-21
2022/06/03 09:13:31;;;;;;;;;;;24.10;39.60;;;28.09;25.36;101919.53;5117754;28;20064;-20
2022/06/03 09:15:59;;;;;;;0.80;0.70;;;24.00;39.60;;;28.04;25.51;101922.56;5117068;28;20270;-21
2022/06/03 09:18:35;;;;;;;1.27;1.05;;;24.00;39.60;;;27.93;25.75;101927.06;5135712;28;20961;-22
2022/06/03 09:21:12;;;;;;;0.80;0.80;;;23.90;39.60;;;27.91;25.61;101917.22;5135676;28;20043;-19
2022/06/03 09:23:50;;;;;;;0.77;0.73;;;23.90;39.70;;;27.84;25.69;101907.91;5117984;28;20078;-20
2022/06/03 09:26:59;;;;;;;1.13;0.93;;;23.90;39.70;;;27.87;25.58;101913.06;5117402;28;20383;-21
2022/06/03 09:29:26;;;;;;;1.00;0.90;;;23.90;39.80;;;27.81;25.74;101905.44;5067179;28;20074;-22
2022/06/03 09:31:58;;;;;;;0.95;0.90;;;23.80;39.80;;;27.81;25.88;101909.97;5115789;28;20051;-20
2022/06/03 09:34:48;;;;;;;1.30;0.95;;;23.80;39.90;;;27.78;25.88;101907.53;5135694;28;20047;-22
2022/06/03 09:37:36;;;;;;;1.38;0.73;;;23.80;39.90;;;27.76;25.94;101909.47;5117171;28;20055;-21
2022/06/03 09:40:08;;;;;;;0.90;0.80;;;23.80;39.90;;;27.76;25.64;101899.56;5117003;28;20122;-22
2022/06/03 09:42:35;;;;;;;0.90;0.85;;;23.80;40.00;;;27.74;25.99;101896.16;5115528;28;20043;-22
2022/06/03 09:45:04;;;;;;;0.80;0.80;;;23.80;40.00;;;27.72;26.08;101906.16;5099867;28;20058;-21
2022/06/03 09:47:31;;;;;;;0.77;0.75;;;23.80;40.00;;;27.71;25.85;101893.69;5117000;28;20072;-21
2022/06/03 09:49:58;;;;;;;0.82;0.82;;;23.70;40.00;;;27.65;26.14;101884.25;5116231;28;20122;-21
2022/06/03 09:52:27;;;;;;;0.93;0.90;;;23.70;40.10;;;27.68;26.14;101888.53;5135947;28;20042;-21
2022/06/03 09:55:00;;;;;;;2.65;1.00;;;23.70;40.10;;;27.66;25.77;101888.66;5116895;28;20092;-21
2022/06/03 09:57:39;;;;;;;1.35;0.88;;;23.70;40.10;;;27.61;25.91;101881.91;5135392;28;20039;-20
2022/06/03 10:00:21;;;;;;;1.15;1.05;;;23.70;40.10;;;27.58;25.92;101877.63;5135406;28;20122;-21
2022/06/03 10:02:47;;;;;;;0.80;0.80;;;23.70;40.10;;;27.63;25.76;101878.16;5135535;28;20451;-20
2022/06/03 10:05:16;;;;;;;1.10;0.95;;;23.70;40.10;;;27.62;25.84;101876.44;5115972;28;20043;-20
2022/06/03 10:07:44;;;;;;;1.00;0.90;;;23.70;40.10;;;27.58;26.07;101868.72;5116207;28;20057;-18
2022/06/03 10:13:05;;;;;;;1.05;0.82;;;23.70;40.10;;;27.57;26.14;101867.00;5119976;28;20058;-20
2022/06/03 10:15:39;;;;;;;1.17;1.00;;;23.70;40.10;;;27.53;25.95;101861.88;5116538;27;20050;-20
2022/06/03 10:18:26;;;;;;;0.80;0.70;;;23.70;40.20;;;27.56;26.23;101866.13;5115075;28;20088;-21
2022/06/03 10:21:16;;;;;;;1.05;0.95;;;23.70;40.20;;;27.53;26.01;101858.28;5134775;28;20035;-20
2022/06/03 10:24:00;;;;;;;1.20;1.10;;;23.70;40.20;;;27.53;25.88;101864.56;5134232;28;20107;-20
2022/06/03 10:26:35;;;;;;;1.20;0.85;;;23.60;40.70;;;27.53;25.98;101861.88;5135022;28;20116;-20
2022/06/03 10:29:17;;;;;;;1.15;1.05;;;23.60;40.70;;;27.52;25.86;101862.81;5134567;28;20072;-20
2022/06/03 10:31:52;;;;;;;1.23;0.90;;;23.60;40.20;;;27.47;26.21;101854.25;5134600;28;20446;-20
2022/06/03 10:34:24;;;;;;;1.27;1.10;;;23.60;40.20;;;27.49;26.11;101857.66;5114018;28;20036;-20
2022/06/03 10:36:54;;;;;;;0.90;0.77;;;23.60;40.20;;;27.51;26.21;101863.78;5134273;28;20530;-21
2022/06/03 10:39:23;;;;;;;1.00;0.90;;;23.60;40.20;;;27.49;25.93;101852.31;5134237;28;20121;-21
2022/06/03 10:41:54;;;;;;;0.90;0.90;;;23.60;40.20;;;27.48;26.29;101847.91;5135033;28;20080;-21
2022/06/03 10:44:25;;;;;;;;;;;23.60;40.20;;;27.58;26.16;101831.09;5134851;28;20475;-21
2022/06/03 10:47:22;;;;;;;2.57;1.10;;;23.60;40.20;;;27.51;26.29;101844.97;5113541;28;19915;-21
2022/06/03 10:50:01;;;;;;;0.82;0.70;;;23.60;40.20;;;27.48;26.17;101842.53;5112248;28;20067;-21
2022/06/03 11:01:32;;;;;;;1.25;0.82;;;23.60;40.30;;;27.43;26.21;101831.28;5133955;28;20073;-21
2022/06/03 11:03:59;;;;;;;1.52;0.98;;;23.60;40.30;;;27.44;26.09;101832.13;5134146;28;20043;-21
2022/06/03 11:06:37;;;;;;;2.30;1.00;;;23.60;40.20;;;27.41;26.28;101829.69;5116162;28;20139;-21
2022/06/03 11:09:08;;;;;;;1.48;1.10;;;23.50;40.20;;;27.41;26.23;101819.78;5134153;28;20039;-21
2022/06/03 11:11:51;;;;;;;1.13;1.02;;;23.60;40.20;;;27.44;26.21;101824.94;5134048;28;20039;-21
2022/06/03 11:14:28;;;;;;;1.02;0.90;;;23.50;40.20;;;27.43;26.21;101820.56;5133967;28;20046;-22
2022/06/03 11:17:18;;;;;;;1.40;1.02;;;23.50;40.20;;;27.43;26.24;101817.88;5133984;28;20039;-22
2022/06/03 11:19:52;;;;;;;1.25;1.00;;;23.50;40.20;;;27.41;26.23;101805.50;5133691;28;20474;-21
2022/06/03 11:22:39;;;;;;;1.48;0.90;;;23.50;40.20;;;27.38;26.27;101811.94;5134375;28;20054;-19
2022/06/03 11:25:26;;;;;;;0.82;0.82;;;23.50;40.10;;;27.40;26.29;101807.34;5134365;28;20122;-22
2022/06/03 11:28:01;;;;;;;1.17;1.08;;;23.50;40.20;;;27.38;26.40;101805.72;5115103;28;20043;-19
2022/06/03 11:30:43;;;;;;;1.10;1.00;;;23.50;40.20;;;27.41;26.29;101806.34;5115174;28;20031;-19
2022/06/03 11:33:17;;;;;;;0.98;0.88;;;23.50;40.20;;;27.39;26.16;101796.72;5133638;28;20134;-20
2022/06/03 11:35:51;;;;;;;1.30;1.15;;;23.50;40.20;;;27.38;26.41;101795.00;5112298;28;20533;-19
2022/06/03 11:38:28;;;;;;;1.23;1.13;;;23.50;40.20;;;27.40;26.34;101799.28;5112893;28;20056;-19
2022/06/03 11:41:01;;;;;;;1.63;1.00;;;23.50;40.20;;;27.41;26.29;101800.97;5095070;28;20364;-19
2022/06/03 11:43:55;;;;;;;1.08;0.90;;;23.50;40.20;;;27.41;26.13;101795.59;5093230;28;20048;-22
2022/06/03 11:46:30;;;;;;;2.28;0.90;;;23.50;40.20;;;27.41;26.37;101798.28;5094919;28;20085;-22
2022/06/03 11:48:59;;;;;;;1.98;1.10;;;23.50;40.20;;;27.40;26.08;101780.47;5094588;28;20032;-21
2022/06/03 11:51:28;;;;;;;2.20;1.05;;;23.50;40.20;;;27.44;26.26;101783.78;5113321;28;20039;-21
2022/06/03 11:53:54;;;;;;;1.98;1.20;;;23.50;40.20;;;27.41;26.20;101784.03;5112876;28;20039;-21
2022/06/03 11:56:24;;;;;;;1.10;0.80;;;23.50;40.20;;;27.37;26.11;101778.03;5112931;28;20051;-22
2022/06/03 11:59:16;;;;;;;1.35;1.25;;;23.60;40.20;;;27.44;25.94;101775.75;5111665;28;20053;-21
2022/06/03 12:02:10;;;;;;;1.17;1.00;;;23.60;40.20;;;27.43;26.18;101780.25;5112766;28;20088;-22
2022/06/03 12:05:05;;;;;;;1.27;1.17;;;23.60;40.20;;;27.43;26.03;101764.16;5112648;28;20490;-21
2022/06/03 12:07:45;;;;;;;1.40;0.80;;;23.60;40.20;;;27.43;25.99;101765.94;5092681;28;20040;-20
2022/06/03 12:10:26;;;;;;;0.60;0.60;;;23.50;40.10;;;27.41;26.05;101752.63;5094424;28;20051;-21
2022/06/03 12:13:31;;;;;;;1.35;1.05;;;23.50;40.20;;;27.42;26.37;101753.53;5094387;28;20055;-20